createdAt,value
2019-05-02T00:01:46.586Z,98318.67
2019-05-02T00:04:20.099Z,98315.67
2019-05-02T00:06:42.976Z,98311.47
2019-05-02T00:09:11.187Z,98315.45
2019-05-02T00:11:37.962Z,98313.28
2019-05-02T00:14:04.541Z,98310.28
2019-05-02T00:16:31.135Z,98308.11
2019-05-02T00:18:57.718Z,98306.91
2019-05-02T00:21:24.307Z,98302.45
2019-05-02T00:23:50.882Z,98299.33
2019-05-02T00:26:17.485Z,98305.47
2019-05-02T00:28:47.931Z,98304.14
2019-05-02T00:31:12.878Z,98300.52
2019-05-02T00:33:39.646Z,98299.55
2019-05-02T00:36:06.262Z,98299.42
2019-05-02T00:38:33.399Z,98305.91
2019-05-02T00:41:02.274Z,98304.59
2019-05-02T00:43:34.314Z,98303.27
2019-05-02T00:45:59.827Z,98300.13
2019-05-02T00:48:26.108Z,98301.81
2019-05-02T00:50:52.715Z,98302.30
2019-05-02T00:53:19.284Z,98295.67
2019-05-02T00:55:45.910Z,98293.51
2019-05-02T00:58:12.481Z,98297.83
2019-05-02T01:00:39.080Z,98297.34
2019-05-02T01:03:05.648Z,98294.47
2019-05-02T01:05:33.839Z,98293.28
2019-05-02T01:08:01.028Z,98296.77
2019-05-02T01:10:28.886Z,98294.61
2019-05-02T01:12:55.459Z,98291.95
2019-05-02T01:15:22.029Z,98294.13
2019-05-02T01:17:48.633Z,98294.61
2019-05-02T01:20:15.230Z,98285.95
2019-05-02T01:22:41.824Z,98286.78
2019-05-02T01:25:14.944Z,98287.41
2019-05-02T01:27:41.249Z,98279.59
2019-05-02T01:30:05.880Z,98277.55
2019-05-02T01:32:33.366Z,98282.36
2019-05-02T01:34:59.936Z,98274.91
2019-05-02T01:37:26.548Z,98273.35
2019-05-02T01:39:53.126Z,98272.16
2019-05-02T01:42:19.734Z,98278.78
2019-05-02T01:44:46.303Z,98273.48
2019-05-02T01:47:12.919Z,98272.67
2019-05-02T01:49:39.508Z,98273.64
2019-05-02T01:52:06.084Z,98272.80
2019-05-02T01:54:32.657Z,98268.73
2019-05-02T01:56:59.273Z,98272.84
2019-05-02T01:59:29.155Z,98276.10
2019-05-02T02:01:57.905Z,98270.22
2019-05-02T02:04:22.512Z,98268.06
2019-05-02T02:06:49.125Z,98266.03
2019-05-02T02:09:15.698Z,98266.19
2019-05-02T02:11:42.311Z,98265.34
2019-05-02T02:14:12.901Z,98265.83
2019-05-02T02:16:39.231Z,98276.42
2019-05-02T02:19:05.627Z,98270.16
2019-05-02T02:21:32.258Z,98268.83
2019-05-02T02:23:58.837Z,98266.67
2019-05-02T02:26:25.411Z,98263.67
2019-05-02T02:28:52.027Z,98267.28
2019-05-02T02:31:18.608Z,98265.13
2019-05-02T02:33:48.104Z,98264.41
2019-05-02T02:36:13.512Z,98258.89
2019-05-02T02:38:40.105Z,98259.38
2019-05-02T02:41:12.995Z,98259.14
2019-05-02T02:43:35.233Z,98255.11
2019-05-02T02:46:01.886Z,98256.20
2019-05-02T02:48:33.872Z,98254.42
2019-05-02T02:50:56.800Z,98254.33
2019-05-02T02:53:24.186Z,98258.42
2019-05-02T02:56:00.825Z,98244.64
2019-05-02T02:58:20.128Z,98249.70
2019-05-02T03:00:47.644Z,98250.19
2019-05-02T03:03:20.698Z,98255.25
2019-05-02T03:05:43.463Z,98251.86
2019-05-02T03:08:10.146Z,98257.53
2019-05-02T03:10:39.877Z,98260.53
2019-05-02T03:13:05.049Z,98257.17
2019-05-02T03:15:31.630Z,98261.14
2019-05-02T03:17:59.911Z,98257.17
2019-05-02T03:20:26.546Z,98264.27
2019-05-02T03:22:53.329Z,98264.98
2019-05-02T03:25:27.038Z,98267.38
2019-05-02T03:27:48.244Z,98283.13
2019-05-02T03:30:28.731Z,98269.67
2019-05-02T03:33:03.409Z,98273.39
2019-05-02T03:35:17.979Z,98273.82
2019-05-02T03:37:44.731Z,98273.56
2019-05-02T03:40:08.122Z,98280.28
2019-05-02T03:42:43.660Z,98283.52
2019-05-02T03:45:04.968Z,98282.91
2019-05-02T03:47:36.686Z,98284.07
2019-05-02T03:49:59.685Z,98279.48
2019-05-02T03:52:26.251Z,98285.85
2019-05-02T03:54:52.901Z,98282.95
2019-05-02T03:57:31.679Z,98282.69
2019-05-02T03:59:47.856Z,98280.75
2019-05-02T04:02:20.476Z,98294.91
2019-05-02T04:04:42.790Z,98288.86
2019-05-02T04:07:09.366Z,98292.09
2019-05-02T04:09:42.008Z,98293.03
2019-05-02T04:12:04.282Z,98292.38
2019-05-02T04:14:38.107Z,98293.58
2019-05-02T04:16:59.479Z,98304.27
2019-05-02T04:19:28.615Z,98294.25
2019-05-02T04:21:54.983Z,98305.91
2019-05-02T04:24:21.772Z,98303.62
2019-05-02T04:26:53.831Z,98305.00
2019-05-02T04:29:16.678Z,98305.23
2019-05-02T04:31:43.264Z,98306.30
2019-05-02T04:34:15.133Z,98318.44
2019-05-02T04:36:38.172Z,98318.31
2019-05-02T04:39:05.719Z,98320.70
2019-05-02T04:41:34.313Z,98313.91
2019-05-02T04:44:01.754Z,98316.92
2019-05-02T04:46:31.192Z,98318.95
2019-05-02T04:48:58.904Z,98315.33
2019-05-02T04:51:27.629Z,98334.45
2019-05-02T04:53:53.523Z,98321.92
2019-05-02T04:56:20.093Z,98321.66
2019-05-02T04:58:49.398Z,98321.52
2019-05-02T05:01:15.010Z,98322.06
2019-05-02T05:03:41.614Z,98320.47
2019-05-02T05:06:12.193Z,98320.08
2019-05-02T05:08:38.838Z,98325.95
2019-05-02T05:11:04.811Z,98321.20
2019-05-02T05:13:31.422Z,98313.81
2019-05-02T05:15:58.000Z,98324.41
2019-05-02T05:18:24.573Z,98320.83
2019-05-02T05:20:52.909Z,98316.94
2019-05-02T05:23:21.536Z,98316.53
2019-05-02T05:25:50.415Z,98313.48
2019-05-02T05:28:19.827Z,98309.91
2019-05-02T05:30:45.486Z,98312.50
2019-05-02T05:33:12.834Z,98306.78
2019-05-02T05:35:43.309Z,98312.00
2019-05-02T05:38:07.849Z,98306.77
2019-05-02T05:40:34.518Z,98314.68
2019-05-02T05:43:02.665Z,98309.41
2019-05-02T05:45:29.421Z,98307.81
2019-05-02T05:47:57.491Z,98306.56
2019-05-02T05:50:24.336Z,98311.32
2019-05-02T05:52:51.958Z,98312.28
2019-05-02T05:55:24.041Z,98310.05
2019-05-02T05:57:49.747Z,98307.29
2019-05-02T06:00:18.828Z,98316.30
2019-05-02T06:02:53.790Z,98296.25
2019-05-02T06:05:12.094Z,98308.34
2019-05-02T06:07:41.891Z,98308.34
2019-05-02T06:10:07.919Z,98307.50
2019-05-02T06:12:35.625Z,98309.17
2019-05-02T06:15:03.812Z,98308.48
2019-05-02T06:17:30.608Z,98301.70
2019-05-02T06:19:57.230Z,98306.66
2019-05-02T06:22:24.686Z,98301.34
2019-05-02T06:24:52.221Z,98293.73
2019-05-02T06:27:20.834Z,98296.73
2019-05-02T06:29:51.194Z,98294.08
2019-05-02T06:32:19.272Z,98298.63
2019-05-02T06:34:46.347Z,98300.16
2019-05-02T06:37:13.599Z,98296.08
2019-05-02T06:39:40.514Z,98294.11
2019-05-02T06:42:07.089Z,98300.47
2019-05-02T06:44:33.707Z,98294.88
2019-05-02T06:47:04.404Z,98288.83
2019-05-02T06:49:28.579Z,98290.05
2019-05-02T06:51:56.204Z,98291.44
2019-05-02T06:54:24.074Z,98295.00
2019-05-02T06:56:50.856Z,98293.42
2019-05-02T06:59:18.458Z,98299.48
2019-05-02T07:01:45.769Z,98292.94
2019-05-02T07:04:12.360Z,98292.22
2019-05-02T07:06:50.054Z,98285.30
2019-05-02T07:09:07.432Z,98287.94
2019-05-02T07:11:38.908Z,98283.23
2019-05-02T07:14:13.180Z,98296.17
2019-05-02T07:16:38.394Z,98274.50
2019-05-02T07:18:59.216Z,98279.94
2019-05-02T07:21:25.822Z,98277.20
2019-05-02T07:23:53.796Z,98274.95
2019-05-02T07:26:22.900Z,98266.66
2019-05-02T07:28:49.011Z,98273.17
2019-05-02T07:31:15.626Z,98268.39
2019-05-02T07:33:42.204Z,98262.53
2019-05-02T07:36:08.829Z,98271.20
2019-05-02T07:38:35.408Z,98272.73
2019-05-02T07:41:02.008Z,98273.46
2019-05-02T07:43:28.568Z,98266.86
2019-05-02T07:45:55.178Z,98274.23
2019-05-02T07:48:21.766Z,98269.34
2019-05-02T07:50:48.483Z,98264.73
2019-05-02T07:53:15.065Z,98257.31
2019-05-02T07:55:42.716Z,98270.85
2019-05-02T07:58:09.422Z,98284.55
2019-05-02T08:00:37.038Z,98269.77
2019-05-02T08:03:05.145Z,98264.66
2019-05-02T08:05:31.910Z,98269.70
2019-05-02T08:07:58.498Z,98267.77
2019-05-02T08:10:25.100Z,98266.14
2019-05-02T08:12:51.671Z,98277.02
2019-05-02T08:15:18.263Z,98263.56
2019-05-02T08:17:53.117Z,98262.89
2019-05-02T08:20:13.605Z,98266.59
2019-05-02T08:22:44.043Z,98289.62
2019-05-02T08:25:10.875Z,98265.95
2019-05-02T08:27:38.155Z,98261.62
2019-05-02T08:30:05.932Z,98253.30
2019-05-02T08:32:32.720Z,98251.66
2019-05-02T08:34:59.296Z,98252.36
2019-05-02T08:37:25.886Z,98249.69
2019-05-02T08:39:52.459Z,98250.67
2019-05-02T08:42:19.067Z,98257.20
2019-05-02T08:44:51.370Z,98253.36
2019-05-02T08:47:19.057Z,98240.48
2019-05-02T08:49:42.549Z,98243.67
2019-05-02T08:52:09.363Z,98243.65
2019-05-02T08:54:35.931Z,98252.17
2019-05-02T08:57:02.553Z,98254.65
2019-05-02T08:59:29.123Z,98248.97
2019-05-02T09:01:55.819Z,98241.28
2019-05-02T09:04:24.235Z,98251.30
2019-05-02T09:06:53.137Z,98253.47
2019-05-02T09:09:22.713Z,98243.91
2019-05-02T09:11:57.539Z,98250.58
2019-05-02T09:14:15.670Z,98248.87
2019-05-02T09:16:42.707Z,98230.80
2019-05-02T09:19:13.494Z,98239.95
2019-05-02T09:21:37.764Z,98232.75
2019-05-02T09:24:08.575Z,98241.27
2019-05-02T09:26:37.924Z,98228.71
2019-05-02T09:29:05.417Z,98225.47
2019-05-02T09:31:31.953Z,98236.94
2019-05-02T09:33:58.685Z,98218.18
2019-05-02T09:36:25.301Z,98227.80
2019-05-02T09:38:55.938Z,98213.32
2019-05-02T09:41:22.098Z,98208.69
2019-05-02T09:43:48.525Z,98217.48
2019-05-02T09:46:16.584Z,98212.25
2019-05-02T09:48:43.406Z,98226.19
2019-05-02T09:51:12.889Z,98235.00
2019-05-02T09:53:38.325Z,98215.96
2019-05-02T09:56:04.905Z,98190.84
2019-05-02T09:58:32.040Z,98197.33
2019-05-02T10:00:58.762Z,98206.06
2019-05-02T10:03:25.385Z,98196.23
2019-05-02T10:05:52.370Z,98191.57
2019-05-02T10:08:19.138Z,98194.68
2019-05-02T10:10:46.219Z,98192.23
2019-05-02T10:13:12.994Z,98190.98
2019-05-02T10:15:41.955Z,98183.76
2019-05-02T10:18:11.487Z,98174.08
2019-05-02T10:20:36.702Z,98188.88
2019-05-02T10:23:03.347Z,98193.34
2019-05-02T10:25:32.850Z,98179.72
2019-05-02T10:27:58.259Z,98178.46
2019-05-02T10:30:24.840Z,98173.09
2019-05-02T10:32:55.576Z,98171.03
2019-05-02T10:35:19.747Z,98158.73
2019-05-02T10:37:46.347Z,98161.14
2019-05-02T10:40:17.044Z,98166.80
2019-05-02T10:42:43.632Z,98152.50
2019-05-02T10:45:13.040Z,98161.46
2019-05-02T10:47:38.555Z,98168.11
2019-05-02T10:50:05.128Z,98161.63
2019-05-02T10:52:34.167Z,98158.41
2019-05-02T10:55:02.506Z,98163.61
2019-05-02T10:57:28.360Z,98147.42
2019-05-02T10:59:56.269Z,98150.69
2019-05-02T11:02:22.934Z,98147.11
2019-05-02T11:04:49.510Z,98154.53
2019-05-02T11:07:16.999Z,98155.50
2019-05-02T11:09:44.453Z,98149.81
2019-05-02T11:12:11.879Z,98144.73
2019-05-02T11:14:38.611Z,98152.77
2019-05-02T11:17:08.759Z,98145.83
2019-05-02T11:19:33.537Z,98146.57
2019-05-02T11:22:00.108Z,98148.50
2019-05-02T11:24:26.698Z,98148.62
2019-05-02T11:26:53.315Z,98139.52
2019-05-02T11:29:20.045Z,98138.27
2019-05-02T11:31:46.609Z,98137.03
2019-05-02T11:34:13.264Z,98147.22
2019-05-02T11:36:41.547Z,98147.10
2019-05-02T11:39:15.949Z,98136.69
2019-05-02T11:41:36.501Z,98137.32
2019-05-02T11:44:03.158Z,98130.84
2019-05-02T11:46:29.860Z,98124.27
2019-05-02T11:48:58.673Z,98132.72
2019-05-02T11:51:24.775Z,98123.22
2019-05-02T11:53:52.631Z,98117.58
2019-05-02T11:56:19.551Z,98128.14
2019-05-02T11:58:48.078Z,98132.06
2019-05-02T12:01:14.570Z,98125.94
2019-05-02T12:03:42.335Z,98123.62
2019-05-02T12:06:12.209Z,98114.73
2019-05-02T12:08:39.425Z,98116.88
2019-05-02T12:11:08.470Z,98119.53
2019-05-02T12:13:33.972Z,98106.91
2019-05-02T12:16:02.554Z,98106.78
2019-05-02T12:18:28.873Z,98105.05
2019-05-02T12:20:55.451Z,98103.61
2019-05-02T12:23:22.614Z,98115.38
2019-05-02T12:25:49.432Z,98107.08
2019-05-02T12:28:16.001Z,98104.72
2019-05-02T12:30:42.595Z,98098.84
2019-05-02T12:33:09.170Z,98097.22
2019-05-02T12:35:35.774Z,98104.66
2019-05-02T12:38:02.752Z,98098.45
2019-05-02T12:40:29.522Z,98107.75
2019-05-02T12:42:56.102Z,98100.73
2019-05-02T12:45:22.685Z,98103.22
2019-05-02T12:47:49.253Z,98101.75
2019-05-02T12:50:18.363Z,98095.30
2019-05-02T12:52:44.930Z,98094.19
2019-05-02T12:55:12.756Z,98092.91
2019-05-02T12:57:39.497Z,98091.78
2019-05-02T13:00:06.088Z,98083.68
2019-05-02T13:02:32.706Z,98089.52
2019-05-02T13:04:59.324Z,98094.89
2019-05-02T13:07:25.911Z,98090.28
2019-05-02T13:09:52.875Z,98083.61
2019-05-02T13:12:19.569Z,98082.79
2019-05-02T13:14:46.162Z,98085.34
2019-05-02T13:17:12.729Z,98086.72
2019-05-02T13:19:41.375Z,98088.82
2019-05-02T13:22:07.640Z,98088.51
2019-05-02T13:24:34.420Z,98091.97
2019-05-02T13:27:03.991Z,98083.27
2019-05-02T13:29:29.297Z,98074.56
2019-05-02T13:31:55.867Z,98079.64
2019-05-02T13:34:22.452Z,98075.51
2019-05-02T13:36:49.052Z,98073.03
2019-05-02T13:39:15.624Z,98067.80
2019-05-02T13:41:42.783Z,98084.01
2019-05-02T13:44:09.496Z,98073.09
2019-05-02T13:46:36.151Z,98069.23
2019-05-02T13:49:02.732Z,98071.89
2019-05-02T13:51:29.328Z,98071.90
2019-05-02T13:53:55.898Z,98069.96
2019-05-02T13:56:22.515Z,98063.09
2019-05-02T13:58:49.093Z,98065.63
2019-05-02T14:01:15.706Z,98060.08
2019-05-02T14:03:42.267Z,98057.96
2019-05-02T14:06:08.895Z,98060.86
2019-05-02T14:08:37.048Z,98056.11
2019-05-02T14:11:03.875Z,98062.86
2019-05-02T14:13:31.597Z,98059.03
2019-05-02T14:15:58.445Z,98057.57
2019-05-02T14:18:29.203Z,98064.75
2019-05-02T14:20:53.358Z,98052.15
2019-05-02T14:23:21.699Z,98053.70
2019-05-02T14:25:48.926Z,98049.46
2019-05-02T14:28:15.504Z,98071.64
2019-05-02T14:30:46.129Z,98062.97
2019-05-02T14:33:11.754Z,98056.66
2019-05-02T14:35:38.486Z,98059.73
2019-05-02T14:38:05.056Z,98058.42
2019-05-02T14:40:31.990Z,98049.63
2019-05-02T14:43:03.492Z,98049.59
2019-05-02T14:45:31.153Z,98054.35
2019-05-02T14:48:00.355Z,98045.89
2019-05-02T14:50:26.516Z,98065.17
2019-05-02T14:52:51.965Z,98044.48
2019-05-02T14:55:22.214Z,98047.36
2019-05-02T14:57:46.910Z,98045.19
2019-05-02T15:00:13.481Z,98052.86
2019-05-02T15:02:47.175Z,98050.63
2019-05-02T15:05:08.359Z,98051.63
2019-05-02T15:07:34.975Z,98046.23
2019-05-02T15:10:05.407Z,98038.02
2019-05-02T15:12:29.863Z,98037.46
2019-05-02T15:14:58.695Z,98044.14
2019-05-02T15:17:28.066Z,98035.91
2019-05-02T15:19:53.056Z,98031.33
2019-05-02T15:22:22.841Z,98031.89
2019-05-02T15:24:49.418Z,98029.14
2019-05-02T15:27:17.724Z,98033.35
2019-05-02T15:29:44.331Z,98039.18
2019-05-02T15:32:12.672Z,98021.61
2019-05-02T15:34:46.269Z,98030.03
2019-05-02T15:37:07.571Z,98027.09
2019-05-02T15:42:02.474Z,98033.68
2019-05-02T15:44:29.048Z,98031.53
2019-05-02T15:46:58.432Z,98029.70
2019-05-02T15:49:23.952Z,98029.28
2019-05-02T15:51:52.263Z,98026.45
2019-05-02T15:54:20.267Z,98031.91
2019-05-02T15:56:54.108Z,98027.82
2019-05-02T15:59:15.527Z,98036.13
2019-05-02T16:01:47.340Z,98021.78
2019-05-02T16:04:10.451Z,98021.02
2019-05-02T16:06:37.024Z,98023.55
2019-05-02T16:09:03.615Z,98019.70
2019-05-02T16:11:32.081Z,98027.00
2019-05-02T16:13:58.507Z,98025.34
2019-05-02T16:16:25.083Z,98017.98
2019-05-02T16:18:52.512Z,98023.47
2019-05-02T16:21:28.411Z,98018.03
2019-05-02T16:23:47.793Z,98016.33
2019-05-02T16:26:14.373Z,98015.63
2019-05-02T16:28:42.092Z,98011.67
2019-05-02T16:31:09.286Z,98016.00
2019-05-02T16:33:35.874Z,98027.00
2019-05-02T16:36:02.764Z,98026.42
2019-05-02T16:38:32.351Z,98023.71
2019-05-02T16:41:04.046Z,98030.17
2019-05-02T16:43:26.046Z,98023.20
2019-05-02T16:45:52.661Z,98026.30
2019-05-02T16:48:19.333Z,98024.00
2019-05-02T16:50:45.915Z,98026.74
2019-05-02T16:53:12.527Z,98023.98
2019-05-02T16:55:39.095Z,98025.61
2019-05-02T16:58:07.242Z,98026.69
2019-05-02T17:00:36.838Z,98024.47
2019-05-02T17:03:03.820Z,98026.34
2019-05-02T17:05:32.463Z,98025.57
2019-05-02T17:07:58.980Z,98039.04
2019-05-02T17:10:25.591Z,98035.94
2019-05-02T17:12:56.317Z,98037.52
2019-05-02T17:15:21.956Z,98029.70
2019-05-02T17:17:48.827Z,98041.86
2019-05-02T17:20:16.773Z,98041.08
2019-05-02T17:22:43.913Z,98039.97
2019-05-02T17:25:12.335Z,98041.39
2019-05-02T17:27:39.111Z,98045.14
2019-05-02T17:30:05.702Z,98044.22
2019-05-02T17:32:34.152Z,98046.33
2019-05-02T17:35:02.654Z,98050.58
2019-05-02T17:37:28.914Z,98052.66
2019-05-02T17:39:55.520Z,98051.57
2019-05-02T17:42:25.706Z,98049.59
2019-05-02T17:44:51.801Z,98052.70
2019-05-02T17:47:18.742Z,98055.28
2019-05-02T17:49:45.343Z,98059.52
2019-05-02T17:52:19.917Z,98061.62
2019-05-02T17:54:42.233Z,98060.17
2019-05-02T17:57:08.546Z,98064.11
2019-05-02T17:59:37.557Z,98063.66
2019-05-02T18:02:06.653Z,98067.06
2019-05-02T18:04:32.470Z,98066.80
2019-05-02T18:06:59.225Z,98072.86
2019-05-02T18:09:26.398Z,98074.95
2019-05-02T18:11:54.151Z,98073.33
2019-05-02T18:14:22.090Z,98071.37
2019-05-02T18:16:52.013Z,98071.41
2019-05-02T18:19:21.836Z,98077.14
2019-05-02T18:21:45.680Z,98081.23
2019-05-02T18:24:12.640Z,98084.27
2019-05-02T18:26:39.438Z,98086.52
2019-05-02T18:29:06.953Z,98091.40
2019-05-02T18:31:34.833Z,98093.96
2019-05-02T18:34:01.997Z,98091.65
2019-05-02T18:36:28.596Z,98093.05
2019-05-02T18:39:00.566Z,98106.25
2019-05-02T18:41:23.530Z,98109.60
2019-05-02T18:43:52.023Z,98112.95
2019-05-02T18:46:19.947Z,98105.60
2019-05-02T18:48:49.135Z,98112.95
2019-05-02T18:51:17.146Z,98117.31
2019-05-02T18:53:43.317Z,98117.48
2019-05-02T18:56:09.935Z,98115.98
2019-05-02T18:58:41.469Z,98111.48
2019-05-02T19:01:08.565Z,98116.66
2019-05-02T19:03:33.409Z,98124.02
2019-05-02T19:06:02.012Z,98119.05
2019-05-02T19:08:31.642Z,98126.06
2019-05-02T19:11:08.815Z,98123.06
2019-05-02T19:13:25.177Z,98127.41
2019-05-02T19:15:53.460Z,98129.11
2019-05-02T19:18:20.172Z,98133.96
2019-05-02T19:20:52.549Z,98137.13
2019-05-02T19:23:15.167Z,98140.64
2019-05-02T19:25:41.787Z,98139.84
2019-05-02T19:28:08.359Z,98135.50
2019-05-02T19:30:34.957Z,98137.50
2019-05-02T19:33:03.707Z,98142.54
2019-05-02T19:35:29.911Z,98135.19
2019-05-02T19:37:56.483Z,98138.19
2019-05-02T19:40:26.872Z,98135.20
2019-05-02T19:42:52.711Z,98136.37
2019-05-02T19:45:19.485Z,98132.52
2019-05-02T19:47:48.942Z,98130.84
2019-05-02T19:50:14.405Z,98130.66
2019-05-02T19:52:42.882Z,98130.69
2019-05-02T19:55:14.188Z,98129.84
2019-05-02T19:57:37.615Z,98127.83
2019-05-02T20:00:06.461Z,98127.16
2019-05-02T20:02:32.823Z,98135.17
2019-05-02T20:05:02.688Z,98124.83
2019-05-02T20:07:29.155Z,98126.83
2019-05-02T20:09:55.721Z,98117.81
2019-05-02T20:12:22.324Z,98115.47
2019-05-02T20:14:48.916Z,98114.49
2019-05-02T20:17:20.225Z,98120.48
2019-05-02T20:19:43.841Z,98121.80
2019-05-02T20:22:11.846Z,98121.79
2019-05-02T20:24:38.600Z,98129.77
2019-05-02T20:27:05.214Z,98133.78
2019-05-02T20:29:32.131Z,98139.59
2019-05-02T20:31:58.983Z,98140.08
2019-05-02T20:34:25.554Z,98134.23
2019-05-02T20:36:52.172Z,98133.59
2019-05-02T20:39:18.758Z,98141.41
2019-05-02T20:41:45.372Z,98151.73
2019-05-02T20:44:12.294Z,98151.05
2019-05-02T20:46:39.033Z,98146.72
2019-05-02T20:49:05.605Z,98144.20
2019-05-02T20:51:32.270Z,98142.69
2019-05-02T20:53:58.848Z,98146.33
2019-05-02T20:56:25.469Z,98150.80
2019-05-02T20:58:52.604Z,98149.28
2019-05-02T21:01:20.865Z,98150.75
2019-05-02T21:03:47.442Z,98141.09
2019-05-02T21:06:15.933Z,98149.06
2019-05-02T21:08:42.510Z,98153.86
2019-05-02T21:11:09.132Z,98146.86
2019-05-02T21:13:37.640Z,98151.17
2019-05-02T21:16:04.024Z,98155.48
2019-05-02T21:18:32.646Z,98151.45
2019-05-02T21:20:58.926Z,98153.59
2019-05-02T21:23:25.489Z,98158.42
2019-05-02T21:25:52.481Z,98159.56
2019-05-02T21:28:19.294Z,98159.04
2019-05-02T21:30:45.869Z,98159.84
2019-05-02T21:33:12.465Z,98171.30
2019-05-02T21:35:39.311Z,98174.30
2019-05-02T21:38:05.909Z,98184.91
2019-05-02T21:40:32.692Z,98180.23
2019-05-02T21:42:59.479Z,98175.55
2019-05-02T21:45:26.050Z,98169.55
2019-05-02T21:47:52.820Z,98174.38
2019-05-02T21:50:19.406Z,98176.20
2019-05-02T21:52:45.999Z,98178.17
2019-05-02T21:55:12.574Z,98176.01
2019-05-02T21:57:39.183Z,98164.19
2019-05-02T22:00:05.785Z,98161.18
2019-05-02T22:02:32.416Z,98156.84
2019-05-02T22:04:59.003Z,98158.17
2019-05-02T22:07:25.609Z,98157.00
2019-05-02T22:09:53.627Z,98152.66
2019-05-02T22:12:22.419Z,98150.64
2019-05-02T22:14:48.592Z,98161.78
2019-05-02T22:17:17.109Z,98158.29
2019-05-02T22:19:43.516Z,98158.78
2019-05-02T22:22:12.103Z,98157.80
2019-05-02T22:24:38.418Z,98159.13
2019-05-02T22:27:05.034Z,98156.62
2019-05-02T22:29:32.490Z,98154.11
2019-05-02T22:31:59.161Z,98165.28
2019-05-02T22:34:25.898Z,98158.77
2019-05-02T22:36:54.353Z,98155.28
2019-05-02T22:39:22.169Z,98161.25
2019-05-02T22:41:48.947Z,98157.03
2019-05-02T22:44:15.552Z,98152.84
2019-05-02T22:46:43.168Z,98161.13
2019-05-02T22:49:11.883Z,98167.28
2019-05-02T22:51:38.516Z,98166.55
2019-05-02T22:54:05.104Z,98158.33
2019-05-02T22:56:31.782Z,98157.78
2019-05-02T22:58:58.375Z,98151.23
2019-05-02T23:01:24.949Z,98150.84
2019-05-02T23:03:52.445Z,98149.84
2019-05-02T23:06:19.222Z,98146.30
2019-05-02T23:08:45.827Z,98151.77
2019-05-02T23:11:13.011Z,98150.39
2019-05-02T23:13:39.686Z,98146.05
2019-05-02T23:16:06.269Z,98145.16
2019-05-02T23:18:32.879Z,98146.59
2019-05-02T23:20:59.457Z,98142.73
2019-05-02T23:23:26.057Z,98139.47
2019-05-02T23:25:52.666Z,98138.77
2019-05-02T23:28:19.280Z,98135.85
2019-05-02T23:30:45.857Z,98139.09
2019-05-02T23:33:12.989Z,98134.02
2019-05-02T23:35:39.719Z,98131.59
2019-05-02T23:38:06.320Z,98133.32
2019-05-02T23:40:32.911Z,98135.86
2019-05-02T23:42:59.526Z,98135.77
2019-05-02T23:45:26.110Z,98126.84
2019-05-02T23:47:52.888Z,98120.46
2019-05-02T23:50:19.572Z,98120.05
2019-05-02T23:52:46.143Z,98112.52
2019-05-02T23:55:12.759Z,98130.58
2019-05-02T23:57:41.868Z,98146.50
